createdAt,value
2018-10-07T00:00:25.899Z,994.19
2018-10-07T00:01:24.265Z,994.19
2018-10-07T00:02:22.418Z,994.17
2018-10-07T00:03:22.283Z,994.25
2018-10-07T00:04:22.445Z,994.34
2018-10-07T00:05:21.859Z,994.37
2018-10-07T00:06:24.332Z,994.44
2018-10-07T00:07:26.342Z,994.44
2018-10-07T00:08:28.643Z,994.45
2018-10-07T00:09:28.502Z,994.35
2018-10-07T00:10:26.139Z,994.45
2018-10-07T00:11:25.258Z,994.5
2018-10-07T00:12:31.910Z,994.6
2018-10-07T00:13:29.969Z,994.59
2018-10-07T00:14:28.188Z,994.62
2018-10-07T00:15:26.729Z,994.59
2018-10-07T00:16:27.263Z,994.66
2018-10-07T00:17:24.836Z,994.56
2018-10-07T00:18:24.975Z,994.68
2018-10-07T00:19:25.105Z,994.65
2018-10-07T00:20:26.440Z,994.62
2018-10-07T00:21:25.958Z,994.75
2018-10-07T00:22:23.466Z,994.66
2018-10-07T00:23:21.889Z,994.8
2018-10-07T00:24:20.927Z,994.75
2018-10-07T00:25:20.302Z,994.81
2018-10-07T00:26:23.619Z,994.83
2018-10-07T00:27:27.014Z,994.84
2018-10-07T00:28:29.888Z,994.89
2018-10-07T00:29:25.923Z,994.92
2018-10-07T00:30:26.688Z,994.93
2018-10-07T00:31:24.416Z,994.83
2018-10-07T00:32:22.638Z,995
2018-10-07T00:33:23.667Z,994.9
2018-10-07T00:34:25.426Z,994.87
2018-10-07T00:35:28.455Z,994.93
2018-10-07T00:36:24.363Z,995.05
2018-10-07T00:37:25.664Z,995.09
2018-10-07T00:38:25.944Z,995.08
2018-10-07T00:39:24.354Z,995.12
2018-10-07T00:40:23.180Z,994.99
2018-10-07T00:41:21.080Z,994.99
2018-10-07T00:42:24.307Z,994.95
2018-10-07T00:43:23.666Z,994.93
2018-10-07T00:44:21.787Z,994.98
2018-10-07T00:45:24.745Z,994.99
2018-10-07T00:46:23.035Z,994.98
2018-10-07T00:47:20.748Z,995.05
2018-10-07T00:48:19.570Z,995.09
2018-10-07T00:49:21.811Z,995.15
2018-10-07T00:50:19.938Z,995.12
2018-10-07T00:51:18.896Z,995.15
2018-10-07T00:52:24.146Z,995.06
2018-10-07T00:53:22.718Z,995.26
2018-10-07T00:54:19.971Z,995.14
2018-10-07T00:55:18.196Z,995.14
2018-10-07T00:56:22.434Z,995.17
2018-10-07T00:57:20.168Z,995.18
2018-10-07T00:58:20.584Z,995.18
2018-10-07T00:59:20.248Z,995.11
2018-10-07T01:00:22.819Z,995.2
2018-10-07T01:01:21.448Z,995.02
2018-10-07T01:02:19.661Z,995.11
2018-10-07T01:03:21.014Z,995.12
2018-10-07T01:04:18.829Z,995.03
2018-10-07T01:05:18.837Z,995.12
2018-10-07T01:06:24.167Z,995.15
2018-10-07T01:07:22.858Z,995.14
2018-10-07T01:08:22.702Z,995.18
2018-10-07T01:09:21.807Z,995.11
2018-10-07T01:10:26.089Z,995.21
2018-10-07T01:11:28.504Z,995.3
2018-10-07T01:12:27.003Z,995.24
2018-10-07T01:13:25.617Z,995.33
2018-10-07T01:14:26.131Z,995.39
2018-10-07T01:15:29.990Z,995.4
2018-10-07T01:16:30.223Z,995.4
2018-10-07T01:17:28.920Z,995.52
2018-10-07T01:18:26.424Z,995.61
2018-10-07T01:19:24.613Z,995.57
2018-10-07T01:20:35.969Z,995.69
2018-10-07T01:21:34.421Z,995.84
2018-10-07T01:22:36.891Z,995.7
2018-10-07T01:23:34.651Z,995.67
2018-10-07T01:24:33.172Z,995.72
2018-10-07T01:25:31.914Z,995.72
2018-10-07T01:26:33.101Z,995.72
2018-10-07T01:27:39.083Z,995.72
2018-10-07T01:28:37.824Z,995.79
2018-10-07T01:29:45.780Z,995.75
2018-10-07T01:30:44.871Z,995.73
2018-10-07T01:31:46.586Z,995.85
2018-10-07T01:32:46.919Z,995.84
2018-10-07T01:33:49.032Z,995.79
2018-10-07T01:34:49.364Z,995.82
2018-10-07T01:35:54.014Z,995.9
2018-10-07T01:36:52.370Z,995.88
2018-10-07T01:37:50.206Z,995.92
2018-10-07T01:38:47.622Z,996
2018-10-07T01:39:51.469Z,996
2018-10-07T01:40:51.102Z,996
2018-10-07T01:41:51.411Z,996
2018-10-07T01:42:49.541Z,996.01
2018-10-07T01:43:11.040Z,996
2018-10-07T01:44:09.012Z,995.98
2018-10-07T01:45:10.015Z,996.06
2018-10-07T01:46:13.226Z,996.1
2018-10-07T01:47:13.980Z,996.15
2018-10-07T01:48:12.973Z,996.1
2018-10-07T01:49:24.306Z,996.16
2018-10-07T01:50:28.727Z,996.17
2018-10-07T01:51:32.847Z,996.25
2018-10-07T01:52:31.052Z,996.23
2018-10-07T01:53:28.543Z,996.18
2018-10-07T01:54:28.164Z,996.31
2018-10-07T01:55:29.707Z,996.25
2018-10-07T01:56:37.647Z,996.32
2018-10-07T01:57:36.037Z,996.38
2018-10-07T01:58:34.800Z,996.25
2018-10-07T01:59:33.525Z,996.28
2018-10-07T02:00:32.450Z,996.29
2018-10-07T02:01:30.262Z,996.28
2018-10-07T02:02:35.938Z,996.34
2018-10-07T02:03:34.055Z,996.31
2018-10-07T02:04:34.353Z,996.29
2018-10-07T02:05:34.799Z,996.25
2018-10-07T02:06:41.107Z,996.26
2018-10-07T02:07:39.723Z,996.4
2018-10-07T02:08:37.733Z,996.37
2018-10-07T02:09:37.011Z,996.32
2018-10-07T02:10:41.857Z,996.29
2018-10-07T02:11:42.127Z,996.32
2018-10-07T02:12:51.051Z,996.35
2018-10-07T02:13:53.085Z,996.31
2018-10-07T02:14:58.432Z,996.41
2018-10-07T02:15:56.608Z,996.32
2018-10-07T02:16:55.020Z,996.35
2018-10-07T02:17:56.191Z,996.32
2018-10-07T02:18:53.564Z,996.35
2018-10-07T02:19:51.706Z,996.43
2018-10-07T02:20:49.222Z,996.41
2018-10-07T02:21:46.907Z,996.43
2018-10-07T02:22:44.996Z,996.32
2018-10-07T02:23:49.990Z,996.32
2018-10-07T02:24:51.820Z,996.37
2018-10-07T02:25:50.765Z,996.35
2018-10-07T02:26:50.747Z,996.37
2018-10-07T02:27:52.541Z,996.29
2018-10-07T02:28:52.229Z,996.31
2018-10-07T02:29:53.009Z,996.31
2018-10-07T02:30:51.300Z,996.34
2018-10-07T02:31:50.506Z,996.32
2018-10-07T02:32:48.522Z,996.19
2018-10-07T02:33:51.817Z,996.28
2018-10-07T02:34:49.626Z,996.26
2018-10-07T02:35:50.790Z,996.31
2018-10-07T02:36:49.105Z,996.32
2018-10-07T02:37:58.235Z,996.31
2018-10-07T02:39:04.764Z,996.21
2018-10-07T02:40:08.795Z,996.21
2018-10-07T02:41:10.626Z,996.21
2018-10-07T02:42:10.051Z,996.23
2018-10-07T02:43:08.805Z,996.16
2018-10-07T02:44:07.805Z,996.21
2018-10-07T02:45:05.219Z,996.13
2018-10-07T02:46:03.361Z,996.16
2018-10-07T02:47:03.483Z,996.15
2018-10-07T02:48:02.498Z,996.21
2018-10-07T02:49:01.163Z,996.13
2018-10-07T02:50:01.851Z,996.19
2018-10-07T02:51:01.138Z,996.22
2018-10-07T02:52:01.134Z,996.15
2018-10-07T02:53:08.981Z,996.19
2018-10-07T02:54:21.196Z,996.13
2018-10-07T02:55:19.367Z,996.12
2018-10-07T02:56:17.376Z,996.12
2018-10-07T02:57:16.840Z,996.04
2018-10-07T02:58:14.699Z,996.07
2018-10-07T02:59:14.634Z,996.06
2018-10-07T03:00:14.025Z,995.97
2018-10-07T03:01:15.616Z,996.07
2018-10-07T03:02:16.233Z,996.19
2018-10-07T03:03:17.560Z,996.1
2018-10-07T03:04:16.519Z,996.21
2018-10-07T03:05:15.315Z,996.23
2018-10-07T03:06:13.506Z,996.16
2018-10-07T03:07:14.423Z,996.25
2018-10-07T03:08:16.596Z,996.18
2018-10-07T03:09:19.728Z,996.19
2018-10-07T03:10:17.621Z,996.22
2018-10-07T03:11:17.508Z,996.18
2018-10-07T03:12:19.239Z,996.19
2018-10-07T03:13:17.202Z,996.15
2018-10-07T03:14:17.372Z,996.16
2018-10-07T03:15:17.420Z,996.31
2018-10-07T03:16:18.886Z,996.28
2018-10-07T03:17:17.412Z,996.21
2018-10-07T03:18:17.846Z,996.22
2018-10-07T03:19:25.497Z,996.31
2018-10-07T03:20:26.534Z,996.29
2018-10-07T03:21:24.203Z,996.37
2018-10-07T03:22:21.555Z,996.38
2018-10-07T03:23:29.700Z,996.41
2018-10-07T03:24:29.350Z,996.37
2018-10-07T03:25:27.430Z,996.48
2018-10-07T03:26:25.071Z,996.41
2018-10-07T03:27:29.123Z,996.38
2018-10-07T03:28:27.581Z,996.32
2018-10-07T03:29:29.276Z,996.29
2018-10-07T03:30:27.918Z,996.35
2018-10-07T03:31:30.631Z,996.32
2018-10-07T03:32:32.740Z,996.29
2018-10-07T03:33:33.863Z,996.32
2018-10-07T03:34:35.291Z,996.24
2018-10-07T03:35:33.719Z,996.34
2018-10-07T03:36:32.052Z,996.31
2018-10-07T03:37:31.744Z,996.37
2018-10-07T03:38:29.736Z,996.38
2018-10-07T03:39:30.494Z,996.4
2018-10-07T03:40:39.330Z,996.38
2018-10-07T03:41:36.982Z,996.44
2018-10-07T03:42:36.803Z,996.34
2018-10-07T03:43:34.524Z,996.44
2018-10-07T03:44:34.820Z,996.49
2018-10-07T03:45:36.360Z,996.52
2018-10-07T03:46:38.626Z,996.51
2018-10-07T03:47:42.456Z,996.62
2018-10-07T03:48:40.796Z,996.53
2018-10-07T03:49:39.745Z,996.58
2018-10-07T03:50:42.668Z,996.64
2018-10-07T03:51:42.699Z,996.76
2018-10-07T03:52:43.119Z,996.8
2018-10-07T03:53:41.154Z,996.81
2018-10-07T03:54:40.625Z,996.86
2018-10-07T03:55:38.185Z,996.95
2018-10-07T03:56:36.696Z,997.01
2018-10-07T03:57:35.664Z,997.05
2018-10-07T03:58:35.360Z,997.09
2018-10-07T03:59:36.135Z,997.09
2018-10-07T04:00:39.817Z,997.09
2018-10-07T04:01:39.425Z,997.04
2018-10-07T04:02:37.285Z,997.01
2018-10-07T04:03:36.328Z,997.02
2018-10-07T04:04:39.759Z,997.06
2018-10-07T04:05:39.102Z,997.05
2018-10-07T04:06:38.889Z,996.96
2018-10-07T04:07:36.996Z,997.05
2018-10-07T04:08:35.617Z,996.95
2018-10-07T04:09:37.796Z,996.93
2018-10-07T04:10:37.153Z,996.93
2018-10-07T04:11:42.662Z,996.95
2018-10-07T04:12:43.120Z,997.06
2018-10-07T04:13:46.727Z,997.18
2018-10-07T04:14:45.524Z,997.15
2018-10-07T04:15:45.381Z,997.24
2018-10-07T04:16:46.954Z,997.42
2018-10-07T04:17:44.964Z,997.32
2018-10-07T04:18:45.434Z,997.37
2018-10-07T04:19:47.390Z,997.45
2018-10-07T04:20:41.950Z,997.54
2018-10-07T04:21:48.737Z,997.45
2018-10-07T04:22:46.834Z,997.54
2018-10-07T04:23:50.571Z,997.51
2018-10-07T04:24:49.459Z,997.49
2018-10-07T04:25:47.539Z,997.49
2018-10-07T04:26:48.299Z,997.65
2018-10-07T04:27:46.866Z,997.71
2018-10-07T04:28:51.703Z,997.7
2018-10-07T04:29:54.811Z,997.64
2018-10-07T04:30:52.686Z,997.65
2018-10-07T04:31:50.319Z,997.6
2018-10-07T04:32:48.360Z,997.67
2018-10-07T04:33:54.786Z,997.67
2018-10-07T04:34:54.615Z,997.58
2018-10-07T04:36:01.307Z,997.7
2018-10-07T04:37:01.405Z,997.68
2018-10-07T04:37:59.428Z,997.61
2018-10-07T04:38:57.271Z,997.73
2018-10-07T04:39:58.623Z,997.62
2018-10-07T04:40:56.191Z,997.55
2018-10-07T04:41:59.280Z,997.58
2018-10-07T04:43:02.395Z,997.67
2018-10-07T04:44:12.423Z,997.61
2018-10-07T04:45:11.181Z,997.61
2018-10-07T04:46:06.749Z,997.7
2018-10-07T04:47:07.434Z,997.7
2018-10-07T04:48:08.359Z,997.79
2018-10-07T04:49:09.097Z,997.67
2018-10-07T04:50:08.694Z,997.86
2018-10-07T04:51:13.377Z,997.82
2018-10-07T04:52:15.243Z,997.88
2018-10-07T04:53:13.393Z,997.82
2018-10-07T04:54:11.079Z,997.77
2018-10-07T04:55:13.512Z,997.88
2018-10-07T04:56:11.099Z,997.89
2018-10-07T04:57:08.591Z,997.94
2018-10-07T04:58:06.431Z,998.03
2018-10-07T04:59:04.417Z,998.01
2018-10-07T05:00:03.153Z,998.06
2018-10-07T05:01:02.528Z,997.98
2018-10-07T05:02:01.303Z,998.1
2018-10-07T05:02:59.792Z,997.97
2018-10-07T05:04:02.670Z,998.12
2018-10-07T05:05:09.877Z,998.06
2018-10-07T05:06:07.484Z,998.06
2018-10-07T05:07:05.074Z,998.19
2018-10-07T05:08:04.165Z,998.07
2018-10-07T05:09:01.816Z,998.18
2018-10-07T05:09:59.265Z,998.23
2018-10-07T05:10:58.030Z,998.2
2018-10-07T05:12:05.300Z,998.28
2018-10-07T05:13:03.445Z,998.34
2018-10-07T05:14:03.054Z,998.3
2018-10-07T05:15:00.593Z,998.39
2018-10-07T05:15:58.234Z,998.43
2018-10-07T05:17:01.301Z,998.39
2018-10-07T05:18:00.422Z,998.4
2018-10-07T05:19:01.813Z,998.37
2018-10-07T05:20:13.555Z,998.36
2018-10-07T05:21:11.147Z,998.43
2018-10-07T05:22:08.849Z,998.36
2018-10-07T05:23:08.440Z,998.42
2018-10-07T05:24:06.523Z,998.39
2018-10-07T05:25:05.626Z,998.37
2018-10-07T05:26:05.563Z,998.55
2018-10-07T05:27:04.226Z,998.65
2018-10-07T05:28:05.858Z,998.67
2018-10-07T05:29:12.313Z,998.71
2018-10-07T05:30:18.834Z,998.86
2018-10-07T05:31:19.917Z,998.87
2018-10-07T05:32:18.101Z,998.81
2018-10-07T05:33:22.148Z,998.93
2018-10-07T05:34:19.471Z,998.83
2018-10-07T05:35:17.870Z,998.89
2018-10-07T05:36:14.887Z,998.93
2018-10-07T05:37:12.777Z,998.93
2018-10-07T05:38:11.006Z,998.9
2018-10-07T05:39:08.377Z,999
2018-10-07T05:40:12.310Z,998.97
2018-10-07T05:41:10.022Z,998.97
2018-10-07T05:42:07.382Z,998.96
2018-10-07T05:43:05.750Z,999
2018-10-07T05:44:06.663Z,999.03
2018-10-07T05:45:06.218Z,999.09
2018-10-07T05:46:06.618Z,999.08
2018-10-07T05:47:07.332Z,999.12
2018-10-07T05:48:04.908Z,999.03
2018-10-07T05:49:02.350Z,999.09
2018-10-07T05:50:00.140Z,999.09
2018-10-07T05:50:57.803Z,999.2
2018-10-07T05:51:55.683Z,999.18
2018-10-07T05:53:00.346Z,999.17
2018-10-07T05:53:59.035Z,999.21
2018-10-07T05:54:56.704Z,999.21
2018-10-07T05:55:56.235Z,999.23
2018-10-07T05:56:53.526Z,999.34
2018-10-07T05:57:54.971Z,999.28
2018-10-07T05:58:54.476Z,999.28
2018-10-07T05:59:51.958Z,999.27
2018-10-07T06:00:54.746Z,999.34
2018-10-07T06:01:52.283Z,999.31
2018-10-07T06:02:53.871Z,999.46
2018-10-07T06:03:53.912Z,999.42
2018-10-07T06:04:53.993Z,999.37
2018-10-07T06:05:56.865Z,999.39
2018-10-07T06:06:55.580Z,999.45
2018-10-07T06:07:58.483Z,999.37
2018-10-07T06:08:57.746Z,999.5
2018-10-07T06:09:56.452Z,999.5
2018-10-07T06:10:54.032Z,999.39
2018-10-07T06:11:54.148Z,999.49
2018-10-07T06:13:03.744Z,999.45
2018-10-07T06:14:01.962Z,999.5
2018-10-07T06:15:02.732Z,999.48
2018-10-07T06:16:03.207Z,999.53
2018-10-07T06:17:01.321Z,999.5
2018-10-07T06:17:59.778Z,999.52
2018-10-07T06:19:04.212Z,999.59
2018-10-07T06:20:05.770Z,999.68
2018-10-07T06:21:05.784Z,999.69
2018-10-07T06:22:03.045Z,999.69
2018-10-07T06:23:05.498Z,999.76
2018-10-07T06:24:05.362Z,999.79
2018-10-07T06:25:03.578Z,999.69
2018-10-07T06:26:03.769Z,999.79
2018-10-07T06:27:05.279Z,999.76
2018-10-07T06:28:08.311Z,999.83
2018-10-07T06:29:05.619Z,999.8
2018-10-07T06:30:05.724Z,999.88
2018-10-07T06:31:06.097Z,999.89
2018-10-07T06:32:08.303Z,999.98
2018-10-07T06:33:09.649Z,999.97
2018-10-07T06:34:06.439Z,999.92
2018-10-07T06:35:07.137Z,1000.08
2018-10-07T06:36:06.085Z,1000.14
2018-10-07T06:37:08.888Z,1000.17
2018-10-07T06:38:08.225Z,1000.23
2018-10-07T06:39:05.847Z,1000.3
2018-10-07T06:40:03.029Z,1000.3
2018-10-07T06:41:02.496Z,1000.45
2018-10-07T06:42:00.100Z,1000.52
2018-10-07T06:42:58.799Z,1000.55
2018-10-07T06:43:59.735Z,1000.66
2018-10-07T06:44:59.771Z,1000.64
2018-10-07T06:45:59.901Z,1000.52
2018-10-07T06:46:57.683Z,1000.48
2018-10-07T06:48:00.209Z,1000.47
2018-10-07T06:48:59.502Z,1000.45
2018-10-07T06:49:59.496Z,1000.39
2018-10-07T06:50:57.021Z,1000.5
2018-10-07T06:51:54.219Z,1000.44
2018-10-07T06:52:55.209Z,1000.45
2018-10-07T06:53:58.162Z,1000.48
2018-10-07T06:54:59.648Z,1000.6
2018-10-07T06:55:58.248Z,1000.55
2018-10-07T06:56:57.103Z,1000.74
2018-10-07T06:57:55.178Z,1000.75
2018-10-07T06:58:52.617Z,1000.77
2018-10-07T06:59:50.999Z,1000.91
2018-10-07T07:00:49.012Z,1000.87
2018-10-07T07:01:46.542Z,1000.9
2018-10-07T07:02:46.802Z,1000.91
2018-10-07T07:03:45.895Z,1000.93
2018-10-07T07:04:44.205Z,1000.96
2018-10-07T07:05:43.877Z,1001.05
2018-10-07T07:06:45.433Z,1001.06
2018-10-07T07:07:43.462Z,1001.09
2018-10-07T07:08:43.416Z,1001.16
2018-10-07T07:09:45.332Z,1001.22
2018-10-07T07:10:44.351Z,1001.3
2018-10-07T07:11:47.375Z,1001.37
2018-10-07T07:12:43.932Z,1001.34
2018-10-07T07:13:44.338Z,1001.37
2018-10-07T07:14:47.780Z,1001.46
2018-10-07T07:15:47.259Z,1001.44
2018-10-07T07:16:45.743Z,1001.49
2018-10-07T07:17:47.504Z,1001.51
2018-10-07T07:18:44.678Z,1001.49
2018-10-07T07:19:46.974Z,1001.49
2018-10-07T07:20:49.888Z,1001.53
2018-10-07T07:21:52.758Z,1001.49
2018-10-07T07:22:51.658Z,1001.62
2018-10-07T07:23:49.353Z,1001.59
2018-10-07T07:24:46.778Z,1001.62
2018-10-07T07:25:44.646Z,1001.56
2018-10-07T07:26:46.570Z,1001.65
2018-10-07T07:27:47.939Z,1001.58
2018-10-07T07:28:48.186Z,1001.7
2018-10-07T07:30:00.320Z,1001.65
2018-10-07T07:30:59.085Z,1001.64
2018-10-07T07:32:02.642Z,1001.73
2018-10-07T07:33:01.663Z,1001.84
2018-10-07T07:34:06.386Z,1001.83
2018-10-07T07:35:03.736Z,1001.84
2018-10-07T07:36:04.253Z,1001.87
2018-10-07T07:37:07.150Z,1001.86
2018-10-07T07:38:09.362Z,1001.89
2018-10-07T07:39:08.329Z,1001.83
2018-10-07T07:40:08.063Z,1001.83
2018-10-07T07:41:07.348Z,1001.77
2018-10-07T07:42:06.048Z,1001.89
2018-10-07T07:43:05.756Z,1001.8
2018-10-07T07:44:02.872Z,1001.81
2018-10-07T07:45:03.284Z,1001.84
2018-10-07T07:46:06.987Z,1001.92
2018-10-07T07:47:08.296Z,1001.83
2018-10-07T07:48:06.064Z,1001.93
2018-10-07T07:49:09.434Z,1001.84
2018-10-07T07:50:06.906Z,1001.86
2018-10-07T07:51:07.455Z,1001.78
2018-10-07T07:52:06.177Z,1001.86
2018-10-07T07:53:07.959Z,1001.84
2018-10-07T07:54:02.397Z,1001.95
2018-10-07T07:55:07.794Z,1001.93
2018-10-07T07:56:06.446Z,1001.93
2018-10-07T07:57:09.767Z,1001.93
2018-10-07T07:58:13.847Z,1001.98
2018-10-07T07:59:15.209Z,1001.93
2018-10-07T08:00:16.896Z,1001.77
2018-10-07T08:01:13.999Z,1001.86
2018-10-07T08:02:15.728Z,1001.9
2018-10-07T08:03:14.260Z,1001.92
2018-10-07T08:04:15.279Z,1001.89
2018-10-07T08:05:14.166Z,1001.92
2018-10-07T08:06:11.663Z,1001.92
2018-10-07T08:07:16.611Z,1001.9
2018-10-07T08:08:19.115Z,1001.87
2018-10-07T08:09:16.398Z,1001.84
2018-10-07T08:10:14.593Z,1001.92
2018-10-07T08:11:11.919Z,1001.86
2018-10-07T08:12:09.884Z,1001.83
2018-10-07T08:13:10.078Z,1001.83
2018-10-07T08:14:11.472Z,1001.81
2018-10-07T08:15:09.070Z,1001.83
2018-10-07T08:16:07.891Z,1001.76
2018-10-07T08:17:08.792Z,1001.78
2018-10-07T08:18:09.581Z,1001.86
2018-10-07T08:19:14.174Z,1001.83
2018-10-07T08:19:36.680Z,1001.86
2018-10-07T08:20:33.935Z,1002.02
2018-10-07T08:21:34.808Z,1001.98
2018-10-07T08:22:36.778Z,1002.06
2018-10-07T08:23:34.842Z,1002.02
2018-10-07T08:24:32.599Z,1002.09
2018-10-07T08:25:29.936Z,1002.11
2018-10-07T08:26:28.146Z,1002.09
2018-10-07T08:27:25.559Z,1001.98
2018-10-07T08:28:25.228Z,1002.01
2018-10-07T08:29:24.703Z,1002.08
2018-10-07T08:30:26.489Z,1002.05
2018-10-07T08:31:24.046Z,1002.14
2018-10-07T08:32:24.661Z,1002.05
2018-10-07T08:33:22.107Z,1002.12
2018-10-07T08:34:19.973Z,1002.14
2018-10-07T08:35:22.961Z,1002.2
2018-10-07T08:36:23.502Z,1002.18
2018-10-07T08:37:20.791Z,1002.11
2018-10-07T08:38:19.000Z,1002.03
2018-10-07T08:39:21.140Z,1002.09
2018-10-07T08:40:18.437Z,1002.14
2018-10-07T08:41:18.428Z,1002.06
2018-10-07T08:42:17.612Z,1002.18
2018-10-07T08:43:18.347Z,1002.14
2018-10-07T08:44:17.985Z,1002.09
2018-10-07T08:45:22.022Z,1002.09
2018-10-07T08:46:21.489Z,1002.12
2018-10-07T08:47:18.930Z,1002.17
2018-10-07T08:48:16.819Z,1002.24
2018-10-07T08:49:18.889Z,1002.21
2018-10-07T08:50:28.586Z,1002.15
2018-10-07T08:51:25.726Z,1002.26
2018-10-07T08:52:24.145Z,1002.2
2018-10-07T08:53:21.565Z,1002.12
2018-10-07T08:54:21.617Z,1002.18
2018-10-07T08:55:27.398Z,1002.18
2018-10-07T08:56:25.467Z,1002.21
2018-10-07T08:57:25.924Z,1002.18
2018-10-07T08:58:24.184Z,1002.24
2018-10-07T08:59:27.307Z,1002.23
2018-10-07T09:00:25.270Z,1002.23
2018-10-07T09:01:23.171Z,1002.2
2018-10-07T09:02:21.176Z,1002.34
2018-10-07T09:03:19.769Z,1002.31
2018-10-07T09:04:18.745Z,1002.34
2018-10-07T09:05:18.783Z,1002.4
2018-10-07T09:06:17.706Z,1002.39
2018-10-07T09:07:16.250Z,1002.26
2018-10-07T09:08:14.861Z,1002.4
2018-10-07T09:09:14.230Z,1002.37
2018-10-07T09:10:12.141Z,1002.46
2018-10-07T09:11:11.221Z,1002.4
2018-10-07T09:12:10.181Z,1002.43
2018-10-07T09:13:09.067Z,1002.57
2018-10-07T09:14:07.589Z,1002.55
2018-10-07T09:15:12.870Z,1002.49
2018-10-07T09:16:08.928Z,1002.51
2018-10-07T09:17:11.266Z,1002.52
2018-10-07T09:18:10.669Z,1002.57
2018-10-07T09:19:10.315Z,1002.65
2018-10-07T09:20:10.393Z,1002.52
2018-10-07T09:21:11.470Z,1002.58
2018-10-07T09:22:11.194Z,1002.61
2018-10-07T09:23:09.682Z,1002.62
2018-10-07T09:24:07.036Z,1002.59
2018-10-07T09:25:06.777Z,1002.57
2018-10-07T09:26:04.745Z,1002.65
2018-10-07T09:27:02.487Z,1002.58
2018-10-07T09:28:06.822Z,1002.59
2018-10-07T09:29:04.736Z,1002.59
2018-10-07T09:30:02.153Z,1002.55
2018-10-07T09:31:07.580Z,1002.61
2018-10-07T09:32:07.259Z,1002.61
2018-10-07T09:33:07.505Z,1002.65
2018-10-07T09:34:06.107Z,1002.55
2018-10-07T09:35:03.855Z,1002.57
2018-10-07T09:36:02.447Z,1002.57
2018-10-07T09:37:02.848Z,1002.62
2018-10-07T09:38:01.034Z,1002.59
2018-10-07T09:38:58.612Z,1002.57
2018-10-07T09:39:56.624Z,1002.58
2018-10-07T09:40:56.482Z,1002.58
2018-10-07T09:42:01.238Z,1002.61
2018-10-07T09:43:01.905Z,1002.55
2018-10-07T09:44:00.894Z,1002.58
2018-10-07T09:44:59.011Z,1002.51
2018-10-07T09:46:01.013Z,1002.52
2018-10-07T09:46:58.795Z,1002.52
2018-10-07T09:48:05.041Z,1002.58
2018-10-07T09:49:04.179Z,1002.59
2018-10-07T09:50:15.488Z,1002.64
2018-10-07T09:51:12.772Z,1002.58
2018-10-07T09:52:11.037Z,1002.62
2018-10-07T09:53:12.161Z,1002.58
2018-10-07T09:54:13.708Z,1002.7
2018-10-07T09:55:13.660Z,1002.61
2018-10-07T09:56:14.281Z,1002.62
2018-10-07T09:57:31.112Z,1002.67
2018-10-07T09:58:33.096Z,1002.73
2018-10-07T09:59:27.749Z,1002.62
2018-10-07T10:00:28.268Z,1002.68
2018-10-07T10:01:26.362Z,1002.67
2018-10-07T10:02:26.034Z,1002.61
2018-10-07T10:03:26.176Z,1002.68
2018-10-07T10:04:28.953Z,1002.67
2018-10-07T10:05:30.564Z,1002.71
2018-10-07T10:06:31.713Z,1002.71
2018-10-07T10:07:40.592Z,1002.7
2018-10-07T10:08:43.352Z,1002.8
2018-10-07T10:09:43.860Z,1002.8
2018-10-07T10:10:44.920Z,1002.74
2018-10-07T10:11:43.746Z,1002.79
2018-10-07T10:12:48.153Z,1002.87
2018-10-07T10:13:46.793Z,1002.76
2018-10-07T10:14:47.514Z,1002.85
2018-10-07T10:15:48.631Z,1002.77
2018-10-07T10:16:47.239Z,1002.8
2018-10-07T10:19:04.200Z,1002.77
2018-10-07T10:19:59.090Z,1002.74
2018-10-07T10:20:57.625Z,1002.71
2018-10-07T10:21:55.660Z,1002.74
2018-10-07T10:22:54.732Z,1002.79
2018-10-07T10:23:58.972Z,1002.77
2018-10-07T10:25:04.673Z,1002.7
2018-10-07T10:26:02.607Z,1002.83
2018-10-07T10:27:01.965Z,1002.83
2018-10-07T10:28:02.990Z,1002.71
2018-10-07T10:29:04.450Z,1002.83
2018-10-07T10:30:03.984Z,1002.8
2018-10-07T10:31:02.398Z,1002.76
2018-10-07T10:32:00.286Z,1002.79
2018-10-07T10:32:59.694Z,1002.73
2018-10-07T10:34:07.000Z,1002.8
2018-10-07T10:35:05.097Z,1002.68
2018-10-07T10:36:04.924Z,1002.77
2018-10-07T10:37:11.590Z,1002.76
2018-10-07T10:38:09.364Z,1002.73
2018-10-07T10:39:08.724Z,1002.86
2018-10-07T10:40:07.694Z,1002.83
2018-10-07T10:41:06.962Z,1002.86
2018-10-07T10:42:06.779Z,1002.89
2018-10-07T10:43:05.850Z,1002.83
2018-10-07T10:44:20.328Z,1002.97
2018-10-07T10:45:19.987Z,1002.89
2018-10-07T10:46:18.706Z,1002.95
2018-10-07T10:47:19.431Z,1002.95
2018-10-07T10:48:23.188Z,1002.91
2018-10-07T10:49:21.598Z,1002.94
2018-10-07T10:50:24.737Z,1002.94
2018-10-07T10:51:23.922Z,1003.03
2018-10-07T10:52:24.988Z,1002.92
2018-10-07T10:53:29.328Z,1003.03
2018-10-07T10:54:30.721Z,1002.98
2018-10-07T10:55:30.423Z,1002.98
2018-10-07T10:56:28.134Z,1003.07
2018-10-07T10:57:29.210Z,1003.04
2018-10-07T10:58:33.424Z,1003.19
2018-10-07T10:59:33.182Z,1003.12
2018-10-07T11:00:31.103Z,1003.07
2018-10-07T11:01:32.142Z,1003.14
2018-10-07T11:02:36.143Z,1003.19
2018-10-07T11:03:37.265Z,1003.17
2018-10-07T11:04:36.952Z,1003.17
2018-10-07T11:05:36.413Z,1003.19
2018-10-07T11:06:35.293Z,1003.13
2018-10-07T11:07:34.783Z,1003.22
2018-10-07T11:08:33.502Z,1003.2
2018-10-07T11:09:32.303Z,1003.25
2018-10-07T11:10:33.431Z,1003.31
2018-10-07T11:11:31.541Z,1003.35
2018-10-07T11:12:31.045Z,1003.35
2018-10-07T11:13:30.567Z,1003.31
2018-10-07T11:14:28.608Z,1003.31
2018-10-07T11:15:36.226Z,1003.32
2018-10-07T11:16:34.411Z,1003.35
2018-10-07T11:17:33.716Z,1003.4
2018-10-07T11:18:30.954Z,1003.36
2018-10-07T11:19:30.239Z,1003.37
2018-10-07T11:20:32.004Z,1003.31
2018-10-07T11:21:32.968Z,1003.4
2018-10-07T11:22:35.220Z,1003.22
2018-10-07T11:23:36.470Z,1003.26
2018-10-07T11:24:37.231Z,1003.32
2018-10-07T11:25:35.829Z,1003.39
2018-10-07T11:26:35.114Z,1003.19
2018-10-07T11:27:37.995Z,1003.36
2018-10-07T11:28:36.623Z,1003.39
2018-10-07T11:29:40.273Z,1003.31
2018-10-07T11:30:38.312Z,1003.26
2018-10-07T11:31:37.678Z,1003.37
2018-10-07T11:32:36.802Z,1003.31
2018-10-07T11:33:41.753Z,1003.22
2018-10-07T11:34:54.250Z,1003.32
2018-10-07T11:35:52.566Z,1003.37
2018-10-07T11:36:50.467Z,1003.32
2018-10-07T11:37:48.873Z,1003.32
2018-10-07T11:38:49.933Z,1003.31
2018-10-07T11:39:50.518Z,1003.35
2018-10-07T11:40:49.344Z,1003.31
2018-10-07T11:41:48.391Z,1003.26
2018-10-07T11:42:48.482Z,1003.17
2018-10-07T11:43:47.249Z,1003.36
2018-10-07T11:44:45.182Z,1003.16
2018-10-07T11:46:54.245Z,1003.23
2018-10-07T11:47:48.739Z,1003.22
2018-10-07T11:48:49.115Z,1003.2
2018-10-07T11:49:47.319Z,1003.17
2018-10-07T11:50:50.293Z,1003.17
2018-10-07T11:51:47.952Z,1003.23
2018-10-07T11:52:49.255Z,1003.22
2018-10-07T11:53:50.648Z,1003.22
2018-10-07T11:54:49.710Z,1003.31
2018-10-07T11:55:52.775Z,1003.32
2018-10-07T11:56:51.630Z,1003.19
2018-10-07T11:57:50.675Z,1003.19
2018-10-07T11:58:51.031Z,1003.16
2018-10-07T11:59:54.474Z,1003.13
2018-10-07T12:00:52.213Z,1003.1
2018-10-07T12:01:53.460Z,1003.13
2018-10-07T12:02:55.335Z,1003.06
2018-10-07T12:03:53.043Z,1003.09
2018-10-07T12:04:52.221Z,1003
2018-10-07T12:05:54.554Z,1002.94
2018-10-07T12:06:53.932Z,1002.94
2018-10-07T12:07:52.985Z,1002.95
2018-10-07T12:08:53.662Z,1003.01
2018-10-07T12:09:54.285Z,1003.09
2018-10-07T12:10:52.051Z,1002.94
2018-10-07T12:11:56.650Z,1003.04
2018-10-07T12:12:56.114Z,1003.06
2018-10-07T12:13:56.720Z,1003.1
2018-10-07T12:14:56.129Z,1003.13
2018-10-07T12:16:02.816Z,1003.13
2018-10-07T12:17:00.979Z,1003.12
2018-10-07T12:18:01.582Z,1003.1
2018-10-07T12:19:01.691Z,1003.12
2018-10-07T12:20:03.297Z,1003.13
2018-10-07T12:21:02.274Z,1003.04
2018-10-07T12:22:02.380Z,1003.17
2018-10-07T12:23:04.850Z,1003.06
2018-10-07T12:24:06.937Z,1003.01
2018-10-07T12:25:07.124Z,1003.04